Weather reports worldwide

Advertisment
Catanzaro, Italy (16365): temperature & dewpoint: 31.05.2020 20:00:00 - 06.06.2020 20:00:00 (CEST)Catanzaro, Italy (16365): wind speed: 31.05.2020 20:00:00 - 06.06.2020 20:00:00 (CEST)Catanzaro, Italy (16365): wind direction: 31.05.2020 20:00:00 - 06.06.2020 20:00:00 (CEST)Catanzaro, Italy (16365): reduced air pressure: 31.05.2020 20:00:00 - 06.06.2020 20:00:00 (CEST)Catanzaro, Italy (16365): precipitation: 31.05.2020 20:00:00 - 06.06.2020 20:00:00 (CEST)
Date & Time tt [°C] td [°C] ff [km/h] ff [kn] dd ppp [hPa] rr [mm]
06.06.2020 20:00:00 - - - - - - -
06.06.2020 19:00:00 17,8 13,0 18 10 WNW 1009,2 -
06.06.2020 18:00:00 18,3 12,7 15 8 WNW 1009,3 -
06.06.2020 17:00:00 18,7 12,2 22 12 NW 1009,1 -
06.06.2020 16:00:00 18,8 13,1 22 12 WNW 1008,8 -
06.06.2020 15:00:00 17,8 13,4 16 9 WNW 1009,3 -
06.06.2020 14:00:00 18,7 12,4 29 16 WNW 1008,4 0,0
06.06.2020 13:00:00 18,6 12,5 15 8 WNW 1007,9 -
06.06.2020 12:00:00 19,0 12,9 13 7 W 1007,2 -
06.06.2020 11:00:00 18,4 12,8 18 10 W 1006,7 -
06.06.2020 10:00:00 17,9 13,5 15 8 W 1006,1 -
06.06.2020 09:00:00 16,2 13,4 24 13 NW 1005,9 -
06.06.2020 08:00:00 14,9 12,9 21 11 WNW 1005,5 -
06.06.2020 07:00:00 14,7 13,0 22 12 W 1004,4 -
06.06.2020 06:00:00 14,5 12,7 18 10 W 1003,7 -
06.06.2020 05:00:00 14,7 12,0 22 12 WNW 1002,6 -
06.06.2020 04:00:00 15,4 9,7 28 15 WNW 1002,2 -
06.06.2020 03:00:00 14,9 10,3 16 9 WNW 1001,7 -
06.06.2020 02:00:00 14,5 12,5 15 8 WNW 1002,1 -
06.06.2020 01:00:00 14,2 12,6 37 20 WNW 1002,7 -
06.06.2020 00:00:00 13,9 12,4 16 9 WNW 1003,3 -
05.06.2020 23:00:00 13,7 12,6 16 9 WNW 1003,6 -
05.06.2020 22:00:00 13,7 12,2 15 8 WNW 1003,1 -
05.06.2020 21:00:00 13,3 12,0 21 11 NW 1002,8 -
05.06.2020 20:00:00 13,3 11,2 15 8 WNW 1003,0 -
05.06.2020 19:00:00 15,1 9,4 21 11 NNW 1001,7 -
05.06.2020 18:00:00 14,4 11,1 15 8 ESE 1004,8 -
05.06.2020 17:00:00 16,3 14,6 11 6 ENE 1004,8 -
05.06.2020 16:00:00 17,1 14,5 5 3 ESE 1005,7 -
05.06.2020 15:00:00 17,7 14,1 5 3 ESE 1006,7 -
05.06.2020 14:00:00 17,9 14,3 4 2 E 1006,1 -
05.06.2020 13:00:00 17,2 15,1 0 0 N 1008,4 -
05.06.2020 12:00:00 16,6 14,9 5 3 S 1009,8 -
05.06.2020 11:00:00 16,7 15,3 5 3 SSE 1008,9 -
05.06.2020 10:00:00 16,5 16,4 18 10 ESE 1008,8 -
05.06.2020 09:00:00 16,4 15,0 5 3 E 1009,6 -
05.06.2020 08:00:00 15,9 14,7 2 1 NNE 1009,5 -
05.06.2020 07:00:00 15,9 13,8 2 1 SE 1008,4 -
05.06.2020 06:00:00 17,1 12,0 9 5 WSW 1009,2 -
05.06.2020 05:00:00 16,9 13,3 11 6 WNW 1009,5 -
05.06.2020 04:00:00 16,4 13,8 0 0 N 1009,9 -
05.06.2020 03:00:00 16,4 14,2 2 1 NE 1009,3 -
05.06.2020 02:00:00 16,3 14,2 16 9 NE 1009,7 0,0
05.06.2020 01:00:00 16,2 14,3 15 8 NE 1010,2 -
05.06.2020 00:00:00 16,5 14,8 13 7 NE 1010,4 -
04.06.2020 23:00:00 16,7 14,8 11 6 ENE 1010,6 -
04.06.2020 22:00:00 16,8 14,2 13 7 ENE 1010,6 -
04.06.2020 21:00:00 16,8 13,8 8 4 NE 1010,2 -
04.06.2020 20:00:00 17,9 12,9 18 10 ENE 1009,8 0,0
04.06.2020 19:00:00 19,1 12,6 4 2 E 1009,6 -
04.06.2020 18:00:00 19,6 12,8 11 6 ESE 1009,9 -
04.06.2020 17:00:00 19,8 12,9 8 4 E 1010,0 -
04.06.2020 16:00:00 19,5 12,5 18 10 SSE 1010,6 -
04.06.2020 15:00:00 20,0 11,4 11 6 SSE 1010,7 -
04.06.2020 14:00:00 20,2 11,6 15 8 SSE 1010,8 0,0
04.06.2020 13:00:00 21,2 11,8 11 6 ESE 1010,6 -
04.06.2020 12:00:00 19,8 11,5 2 1 ESE 1011,1 -
04.06.2020 11:00:00 20,1 10,2 8 4 SSE 1010,8 -
04.06.2020 10:00:00 19,4 8,9 9 5 SSE 1010,8 -
04.06.2020 09:00:00 19,8 7,5 8 4 WNW 1010,4 -
04.06.2020 08:00:00 19,0 7,0 0 0 N 1010,4 0,0
04.06.2020 07:00:00 18,0 6,4 2 1 WNW 1010,3 -
04.06.2020 06:00:00 17,2 5,7 11 6 NW 1010,3 -
04.06.2020 05:00:00 17,0 3,6 0 0 N 1010,3 -
04.06.2020 04:00:00 17,2 3,7 5 3 NW 1010,5 -
04.06.2020 03:00:00 16,9 4,5 0 0 N 1011,0 -
04.06.2020 02:00:00 16,3 4,9 2 1 WNW 1011,5 0,0
04.06.2020 01:00:00 16,1 7,0 9 5 WNW 1011,8 -
04.06.2020 00:00:00 15,6 12,3 22 12 NW 1012,3 -
03.06.2020 23:00:00 15,8 12,1 8 4 WNW 1012,3 -
03.06.2020 22:00:00 16,0 12,5 11 6 NW 1012,0 -
03.06.2020 21:00:00 16,7 12,6 2 1 WNW 1011,4 -
03.06.2020 20:00:00 17,6 12,0 16 9 SSE 1011,4 -
03.06.2020 19:00:00 18,8 11,6 11 6 WNW 1011,3 -
03.06.2020 18:00:00 19,5 10,4 9 5 W 1011,2 -
03.06.2020 17:00:00 18,8 10,3 13 7 NW 1011,7 -
03.06.2020 16:00:00 17,4 11,2 11 6 NNW 1012,0 -
03.06.2020 15:00:00 19,1 9,5 22 12 WNW 1012,0 -
03.06.2020 14:00:00 19,0 9,4 9 5 WNW 1012,0 0,0
03.06.2020 13:00:00 19,7 10,4 11 6 W 1011,7 -
03.06.2020 12:00:00 19,1 10,6 13 7 W 1011,9 -
03.06.2020 11:00:00 18,8 11,6 13 7 ENE 1012,0 -
03.06.2020 10:00:00 17,9 11,4 18 10 WNW 1011,9 -
03.06.2020 09:00:00 17,0 11,7 13 7 WNW 1012,2 -
03.06.2020 08:00:00 16,3 10,8 15 8 WNW 1012,1 0,0
03.06.2020 07:00:00 15,4 9,9 16 9 NW 1011,9 -
03.06.2020 06:00:00 14,8 9,3 16 9 NW 1011,5 -
03.06.2020 05:00:00 15,1 9,8 21 11 WNW 1011,4 -
03.06.2020 04:00:00 15,1 10,3 5 3 WNW 1011,8 -
03.06.2020 03:00:00 15,0 10,4 16 9 NW 1012,2 -
03.06.2020 02:00:00 15,2 10,8 16 9 NW 1012,7 0,0
03.06.2020 01:00:00 15,3 10,4 21 11 NW 1012,7 -
03.06.2020 00:00:00 15,6 10,5 22 12 WNW 1012,8 -
02.06.2020 23:00:00 15,8 10,7 22 12 WNW 1012,9 -
02.06.2020 22:00:00 15,8 11,3 21 11 NW 1012,6 -
02.06.2020 21:00:00 15,9 11,2 15 8 WNW 1012,4 -
02.06.2020 20:00:00 16,2 10,7 13 7 WNW 1012,5 0,0
02.06.2020 19:00:00 17,1 9,5 24 13 WNW 1012,6 -
02.06.2020 18:00:00 17,6 8,1 22 12 WNW 1012,4 -
02.06.2020 17:00:00 17,5 7,7 13 7 WNW 1012,8 -
02.06.2020 16:00:00 17,6 8,7 21 11 WNW 1013,4 -
02.06.2020 15:00:00 17,7 8,2 26 14 WNW 1013,9 -
02.06.2020 14:00:00 18,2 8,1 4 2 W 1013,9 0,0
02.06.2020 13:00:00 18,0 8,5 9 5 WNW 1014,1 -
02.06.2020 12:00:00 18,1 7,4 22 12 WNW 1014,2 -
02.06.2020 11:00:00 18,3 8,5 8 4 W 1014,0 -
02.06.2020 10:00:00 17,2 8,3 16 9 WNW 1014,2 -
02.06.2020 09:00:00 16,3 7,7 2 1 WNW 1014,5 -
02.06.2020 08:00:00 15,4 4,7 9 5 NW 1014,4 0,0
02.06.2020 07:00:00 15,2 3,9 4 2 NW 1014,1 -
02.06.2020 06:00:00 14,7 4,6 5 3 NW 1014,2 -
02.06.2020 05:00:00 13,4 3,4 9 5 WNW 1014,3 -
02.06.2020 04:00:00 14,6 3,9 9 5 NNW 1014,4 -
02.06.2020 03:00:00 13,8 5,1 11 6 NW 1015,1 -
02.06.2020 02:00:00 14,0 7,9 11 6 NNW 1015,4 0,0
02.06.2020 01:00:00 14,5 10,7 11 6 NNW 1015,7 -
02.06.2020 00:00:00 14,3 10,9 0 0 N 1015,9 -
01.06.2020 23:00:00 14,5 10,7 0 0 N 1015,5 -
01.06.2020 22:00:00 14,3 10,1 0 0 N 1015,3 -
01.06.2020 21:00:00 15,3 10,0 0 0 N 1014,8 -
01.06.2020 20:00:00 15,4 10,1 0 0 N 1014,7 -
01.06.2020 19:00:00 15,2 11,0 0 0 N 1014,9 -
01.06.2020 18:00:00 16,5 10,7 0 0 N 1014,5 -
01.06.2020 17:00:00 16,0 9,4 0 0 N 1015,0 -
01.06.2020 16:00:00 15,9 9,7 4 2 WNW 1015,5 -
01.06.2020 15:00:00 15,7 8,6 2 1 N 1015,8 -
01.06.2020 14:00:00 15,0 9,3 0 0 N 1015,7 -
01.06.2020 13:00:00 13,9 10,7 5 3 ENE 1016,2 -
01.06.2020 12:00:00 13,9 10,1 2 1 S 1016,3 -
01.06.2020 11:00:00 15,0 10,6 4 2 SSW 1015,7 -
01.06.2020 10:00:00 13,8 10,7 2 1 SW 1015,9 -
01.06.2020 09:00:00 13,1 10,8 0 0 N 1016,1 -
01.06.2020 08:00:00 13,6 10,2 0 0 N 1015,5 -
01.06.2020 07:00:00 14,6 9,4 0 0 N 1015,1 -
01.06.2020 06:00:00 14,4 8,9 13 7 NW 1014,8 -
01.06.2020 05:00:00 14,1 8,9 8 4 WNW 1014,8 -
01.06.2020 04:00:00 14,3 9,3 15 8 WNW 1015,2 -
01.06.2020 03:00:00 14,4 7,8 13 7 WNW 1015,2 -
01.06.2020 02:00:00 14,1 8,4 9 5 NNW 1015,3 0,0
01.06.2020 01:00:00 14,2 8,1 0 0 N 1015,4 -
01.06.2020 00:00:00 14,4 8,1 4 2 NW 1015,7 -
31.05.2020 23:00:00 14,7 8,4 0 0 N 1015,9 -
31.05.2020 22:00:00 14,9 8,8 0 0 N 1015,6 -
31.05.2020 21:00:00 15,3 8,9 0 0 N 1015,2 -
31.05.2020 20:00:00 15,0 9,3 0 0 N 1014,9 -

tt = temperature
td = dewpoint
ff = wind speed
dd = wind direction
ppp = reduced air pressure
rr = precipitation

Next stations